sensor_id;sensor_type;location;lat;lon;timestamp;pressure;altitude;pressure_sealevel;temperature;humidity
76054;BME280;64752;48.870;9.082;2022-12-07T00:00:53;98245.16;;;3.04;93.64
76054;BME280;64752;48.870;9.082;2022-12-07T00:03:19;98239.19;;;3.02;93.78
76054;BME280;64752;48.870;9.082;2022-12-07T00:05:44;98241.72;;;3.01;93.47
76054;BME280;64752;48.870;9.082;2022-12-07T00:08:09;98246.88;;;3.04;92.81
76054;BME280;64752;48.870;9.082;2022-12-07T00:10:35;98234.91;;;2.95;92.83
76054;BME280;64752;48.870;9.082;2022-12-07T00:13:00;98236.63;;;2.88;93.41
76054;BME280;64752;48.870;9.082;2022-12-07T00:15:26;98240.06;;;2.91;93.12
76054;BME280;64752;48.870;9.082;2022-12-07T00:17:51;98232.34;;;2.84;92.81
76054;BME280;64752;48.870;9.082;2022-12-07T00:20:16;98236.63;;;2.82;93.33
76054;BME280;64752;48.870;9.082;2022-12-07T00:22:41;98240.06;;;2.80;93.08
76054;BME280;64752;48.870;9.082;2022-12-07T00:25:07;98240.91;;;2.74;93.25
76054;BME280;64752;48.870;9.082;2022-12-07T00:27:32;98236.63;;;2.65;93.04
76054;BME280;64752;48.870;9.082;2022-12-07T00:29:57;98237.47;;;2.64;93.41
76054;BME280;64752;48.870;9.082;2022-12-07T00:32:23;98237.50;;;2.63;93.92
76054;BME280;64752;48.870;9.082;2022-12-07T00:34:48;98234.94;;;2.61;94.17
76054;BME280;64752;48.870;9.082;2022-12-07T00:37:13;98230.66;;;2.56;93.94
76054;BME280;64752;48.870;9.082;2022-12-07T00:39:39;98234.06;;;2.55;93.97
76054;BME280;64752;48.870;9.082;2022-12-07T00:42:04;98236.63;;;2.47;94.59
76054;BME280;64752;48.870;9.082;2022-12-07T00:44:29;98234.91;;;2.41;94.60
76054;BME280;64752;48.870;9.082;2022-12-07T00:46:55;98226.38;;;2.38;94.83
76054;BME280;64752;48.870;9.082;2022-12-07T00:49:21;98228.09;;;2.34;94.90
76054;BME280;64752;48.870;9.082;2022-12-07T00:51:48;98240.00;;;2.37;95.02
76054;BME280;64752;48.870;9.082;2022-12-07T00:54:14;98236.59;;;2.31;95.13
76054;BME280;64752;48.870;9.082;2022-12-07T00:56:39;98236.63;;;2.44;95.35
76054;BME280;64752;48.870;9.082;2022-12-07T00:59:04;98238.34;;;2.53;94.76
76054;BME280;64752;48.870;9.082;2022-12-07T01:01:35;98241.75;;;2.58;94.10
76054;BME280;64752;48.870;9.082;2022-12-07T01:04:02;98240.91;;;2.54;94.21
76054;BME280;64752;48.870;9.082;2022-12-07T01:06:27;98236.63;;;2.51;94.29
76054;BME280;64752;48.870;9.082;2022-12-07T01:08:53;98238.34;;;2.53;94.55
76054;BME280;64752;48.870;9.082;2022-12-07T01:11:21;98236.63;;;2.47;94.47
76054;BME280;64752;48.870;9.082;2022-12-07T01:13:49;98241.75;;;2.47;94.13
76054;BME280;64752;48.870;9.082;2022-12-07T01:16:16;98243.44;;;2.51;94.74
76054;BME280;64752;48.870;9.082;2022-12-07T01:18:42;98240.88;;;2.57;95.36
76054;BME280;64752;48.870;9.082;2022-12-07T01:21:12;98235.78;;;2.51;94.94
76054;BME280;64752;48.870;9.082;2022-12-07T01:23:38;98240.03;;;2.49;94.98
76054;BME280;64752;48.870;9.082;2022-12-07T01:26:07;98241.75;;;2.45;95.44
76054;BME280;64752;48.870;9.082;2022-12-07T01:28:34;98243.44;;;2.42;95.63
76054;BME280;64752;48.870;9.082;2022-12-07T01:31:07;98243.44;;;2.45;95.34
76054;BME280;64752;48.870;9.082;2022-12-07T01:33:35;98250.28;;;2.57;96.29
76054;BME280;64752;48.870;9.082;2022-12-07T01:36:05;98252.00;;;2.68;95.33
76054;BME280;64752;48.870;9.082;2022-12-07T01:38:32;98247.72;;;2.60;94.55
76054;BME280;64752;48.870;9.082;2022-12-07T01:40:58;98246.00;;;2.59;94.51
76054;BME280;64752;48.870;9.082;2022-12-07T01:43:28;98246.88;;;2.62;94.46
76054;BME280;64752;48.870;9.082;2022-12-07T01:45:55;98257.09;;;2.55;94.43
76054;BME280;64752;48.870;9.082;2022-12-07T01:48:34;98252.84;;;2.49;94.66
76054;BME280;64752;48.870;9.082;2022-12-07T01:51:04;98247.69;;;2.46;94.93
76054;BME280;64752;48.870;9.082;2022-12-07T01:53:32;98251.94;;;2.41;95.07
76054;BME280;64752;48.870;9.082;2022-12-07T01:56:01;98249.41;;;2.35;95.28
76054;BME280;64752;48.870;9.082;2022-12-07T01:58:26;98246.00;;;2.28;95.39
76054;BME280;64752;48.870;9.082;2022-12-07T02:00:52;98242.59;;;2.32;95.46
76054;BME280;64752;48.870;9.082;2022-12-07T02:03:34;98251.09;;;2.26;95.61
76054;BME280;64752;48.870;9.082;2022-12-07T02:06:02;98246.00;;;2.40;96.27
76054;BME280;64752;48.870;9.082;2022-12-07T02:08:27;98244.28;;;2.35;95.61
76054;BME280;64752;48.870;9.082;2022-12-07T02:10:53;98244.28;;;2.28;95.48
76054;BME280;64752;48.870;9.082;2022-12-07T02:13:22;98245.16;;;2.34;95.36
76054;BME280;64752;48.870;9.082;2022-12-07T02:18:25;98236.63;;;2.44;95.49
76054;BME280;64752;48.870;9.082;2022-12-07T02:29:21;98245.16;;;2.52;94.73
76054;BME280;64752;48.870;9.082;2022-12-07T02:34:32;98240.88;;;2.49;95.18
76054;BME280;64752;48.870;9.082;2022-12-07T02:37:05;98223.81;;;2.53;95.56
76054;BME280;64752;48.870;9.082;2022-12-07T02:39:53;98218.72;;;2.56;95.61
76054;BME280;64752;48.870;9.082;2022-12-07T02:42:28;98219.53;;;2.54;94.87
76054;BME280;64752;48.870;9.082;2022-12-07T02:44:57;98215.28;;;2.60;94.98
76054;BME280;64752;48.870;9.082;2022-12-07T02:47:23;98217.00;;;2.49;94.57
76054;BME280;64752;48.870;9.082;2022-12-07T02:49:50;98222.13;;;2.49;95.59
76054;BME280;64752;48.870;9.082;2022-12-07T02:52:16;98221.28;;;2.47;95.18
76054;BME280;64752;48.870;9.082;2022-12-07T02:54:41;98221.28;;;2.39;94.91
76054;BME280;64752;48.870;9.082;2022-12-07T02:57:36;98217.88;;;2.46;94.87
76054;BME280;64752;48.870;9.082;2022-12-07T03:00:11;98208.47;;;2.45;94.52
76054;BME280;64752;48.870;9.082;2022-12-07T03:02:54;98201.63;;;2.37;95.11
76054;BME280;64752;48.870;9.082;2022-12-07T03:13:45;98212.72;;;2.31;94.84
76054;BME280;64752;48.870;9.082;2022-12-07T03:16:19;98209.31;;;2.27;94.65
76054;BME280;64752;48.870;9.082;2022-12-07T03:18:53;98201.63;;;2.26;94.22
76054;BME280;64752;48.870;9.082;2022-12-07T03:21:23;98197.38;;;2.34;94.56
76054;BME280;64752;48.870;9.082;2022-12-07T03:23:54;98198.22;;;2.27;94.84
76054;BME280;64752;48.870;9.082;2022-12-07T03:26:24;98196.50;;;2.27;95.53
76054;BME280;64752;48.870;9.082;2022-12-07T03:28:55;98187.13;;;2.26;94.82
76054;BME280;64752;48.870;9.082;2022-12-07T03:31:31;98191.38;;;2.20;94.67
76054;BME280;64752;48.870;9.082;2022-12-07T03:41:40;98189.66;;;2.09;94.64
76054;BME280;64752;48.870;9.082;2022-12-07T03:44:06;98190.53;;;2.15;94.10
76054;BME280;64752;48.870;9.082;2022-12-07T03:47:12;98178.59;;;2.17;94.07
76054;BME280;64752;48.870;9.082;2022-12-07T03:52:56;98186.28;;;2.15;93.71
76054;BME280;64752;48.870;9.082;2022-12-07T03:55:30;98187.13;;;2.17;94.22
76054;BME280;64752;48.870;9.082;2022-12-07T03:58:04;98182.88;;;2.19;93.56
76054;BME280;64752;48.870;9.082;2022-12-07T04:00:31;98174.34;;;2.23;93.14
76054;BME280;64752;48.870;9.082;2022-12-07T04:02:57;98176.03;;;2.26;93.11
76054;BME280;64752;48.870;9.082;2022-12-07T04:05:23;98184.59;;;2.28;92.55
76054;BME280;64752;48.870;9.082;2022-12-07T04:07:48;98179.47;;;2.28;91.96
76054;BME280;64752;48.870;9.082;2022-12-07T04:10:13;98165.81;;;2.20;93.54
76054;BME280;64752;48.870;9.082;2022-12-07T04:12:39;98153.88;;;2.29;92.14
76054;BME280;64752;48.870;9.082;2022-12-07T04:15:04;98151.31;;;2.22;91.74
76054;BME280;64752;48.870;9.082;2022-12-07T04:17:30;98147.03;;;2.22;91.24
76054;BME280;64752;48.870;9.082;2022-12-07T04:19:55;98148.78;;;2.28;89.97
76054;BME280;64752;48.870;9.082;2022-12-07T04:22:21;98147.06;;;2.19;88.99
76054;BME280;64752;48.870;9.082;2022-12-07T04:24:46;98144.47;;;2.08;89.31
76054;BME280;64752;48.870;9.082;2022-12-07T04:27:11;98140.22;;;2.27;86.97
76054;BME280;64752;48.870;9.082;2022-12-07T04:29:37;98136.81;;;2.27;86.90
76054;BME280;64752;48.870;9.082;2022-12-07T04:32:02;98138.50;;;2.31;86.84
76054;BME280;64752;48.870;9.082;2022-12-07T04:34:27;98132.56;;;2.29;88.75
76054;BME280;64752;48.870;9.082;2022-12-07T04:36:53;98142.78;;;2.10;88.47
76054;BME280;64752;48.870;9.082;2022-12-07T04:39:27;98144.47;;;2.04;89.42
76054;BME280;64752;48.870;9.082;2022-12-07T04:41:52;98150.44;;;1.92;89.96
76054;BME280;64752;48.870;9.082;2022-12-07T04:44:19;98154.66;;;1.76;89.42
76054;BME280;64752;48.870;9.082;2022-12-07T04:46:45;98156.34;;;1.74;88.70
76054;BME280;64752;48.870;9.082;2022-12-07T04:49:14;98158.94;;;1.80;88.93
76054;BME280;64752;48.870;9.082;2022-12-07T04:51:41;98163.19;;;1.81;88.89
76054;BME280;64752;48.870;9.082;2022-12-07T04:54:06;98159.75;;;1.78;90.35
76054;BME280;64752;48.870;9.082;2022-12-07T04:56:32;98160.63;;;1.80;90.31
76054;BME280;64752;48.870;9.082;2022-12-07T04:58:58;98170.88;;;1.83;89.51
76054;BME280;64752;48.870;9.082;2022-12-07T05:01:24;98171.72;;;1.80;89.57
76054;BME280;64752;48.870;9.082;2022-12-07T05:03:50;98170.00;;;1.78;89.28
76054;BME280;64752;48.870;9.082;2022-12-07T05:06:16;98176.78;;;1.66;89.57
76054;BME280;64752;48.870;9.082;2022-12-07T05:08:41;98170.78;;;1.55;90.62
76054;BME280;64752;48.870;9.082;2022-12-07T05:11:08;98175.81;;;1.40;91.44
76054;BME280;64752;48.870;9.082;2022-12-07T05:13:35;98177.47;;;1.24;92.91
76054;BME280;64752;48.870;9.082;2022-12-07T05:16:00;98185.03;;;1.08;93.71
76054;BME280;64752;48.870;9.082;2022-12-07T05:18:26;98190.16;;;1.11;94.39
76054;BME280;64752;48.870;9.082;2022-12-07T05:20:51;98190.94;;;0.96;94.21
76054;BME280;64752;48.870;9.082;2022-12-07T05:23:17;98181.56;;;0.94;94.78
76054;BME280;64752;48.870;9.082;2022-12-07T05:25:43;98183.22;;;0.87;95.11
76054;BME280;64752;48.870;9.082;2022-12-07T05:28:08;98173.78;;;0.79;95.35
76054;BME280;64752;48.870;9.082;2022-12-07T05:30:34;98178.00;;;0.70;95.79
76054;BME280;64752;48.870;9.082;2022-12-07T05:32:59;98173.81;;;0.80;96.04
76054;BME280;64752;48.870;9.082;2022-12-07T05:35:24;98175.66;;;1.01;95.17
76054;BME280;64752;48.870;9.082;2022-12-07T05:37:50;98180.84;;;1.17;93.83
76054;BME280;64752;48.870;9.082;2022-12-07T05:40:16;98182.53;;;1.19;93.70
76054;BME280;64752;48.870;9.082;2022-12-07T05:42:41;98178.31;;;1.30;92.12
76054;BME280;64752;48.870;9.082;2022-12-07T05:45:09;98178.34;;;1.27;91.99
76054;BME280;64752;48.870;9.082;2022-12-07T05:47:35;98173.22;;;1.32;91.74
76054;BME280;64752;48.870;9.082;2022-12-07T05:50:00;98180.84;;;1.21;92.10
76054;BME280;64752;48.870;9.082;2022-12-07T05:52:26;98174.06;;;1.28;91.10
76054;BME280;64752;48.870;9.082;2022-12-07T05:54:51;98173.22;;;1.32;91.48
76054;BME280;64752;48.870;9.082;2022-12-07T05:57:17;98169.94;;;1.61;90.70
76054;BME280;64752;48.870;9.082;2022-12-07T05:59:42;98167.41;;;1.67;90.13
76054;BME280;64752;48.870;9.082;2022-12-07T06:02:11;98165.72;;;1.72;88.03
76054;BME280;64752;48.870;9.082;2022-12-07T06:04:42;98182.81;;;1.82;87.86
76054;BME280;64752;48.870;9.082;2022-12-07T06:07:08;98186.19;;;1.78;88.00
76054;BME280;64752;48.870;9.082;2022-12-07T06:09:34;98181.94;;;1.79;87.46
76054;BME280;64752;48.870;9.082;2022-12-07T06:12:00;98181.06;;;1.72;87.61
76054;BME280;64752;48.870;9.082;2022-12-07T06:14:44;98179.34;;;1.68;88.10
76054;BME280;64752;48.870;9.082;2022-12-07T06:17:11;98175.09;;;1.70;88.06
76054;BME280;64752;48.870;9.082;2022-12-07T06:19:37;98183.59;;;1.69;88.02
76054;BME280;64752;48.870;9.082;2022-12-07T06:22:03;98179.34;;;1.69;87.22
76054;BME280;64752;48.870;9.082;2022-12-07T06:24:30;98175.94;;;1.72;86.89
76054;BME280;64752;48.870;9.082;2022-12-07T06:26:56;98178.53;;;1.75;86.93
76054;BME280;64752;48.870;9.082;2022-12-07T06:29:21;98175.91;;;1.61;86.83
76054;BME280;64752;48.870;9.082;2022-12-07T06:31:47;98164.84;;;1.62;87.03
76054;BME280;64752;48.870;9.082;2022-12-07T06:34:15;98180.16;;;1.65;87.69
76054;BME280;64752;48.870;9.082;2022-12-07T06:36:40;98175.91;;;1.69;87.26
76054;BME280;64752;48.870;9.082;2022-12-07T06:39:07;98173.41;;;1.73;85.50
76054;BME280;64752;48.870;9.082;2022-12-07T06:41:35;98181.03;;;1.66;86.80
76054;BME280;64752;48.870;9.082;2022-12-07T06:44:00;98178.50;;;1.67;85.01
76054;BME280;64752;48.870;9.082;2022-12-07T06:46:26;98179.31;;;1.60;86.73
76054;BME280;64752;48.870;9.082;2022-12-07T06:48:51;98180.16;;;1.61;86.62
76054;BME280;64752;48.870;9.082;2022-12-07T06:51:19;98178.47;;;1.64;87.58
76054;BME280;64752;48.870;9.082;2022-12-07T06:53:45;98179.31;;;1.60;86.85
76054;BME280;64752;48.870;9.082;2022-12-07T06:56:10;98180.16;;;1.58;87.58
76054;BME280;64752;48.870;9.082;2022-12-07T06:58:35;98175.06;;;1.61;89.42
76054;BME280;64752;48.870;9.082;2022-12-07T07:01:01;98180.16;;;1.54;88.50
76054;BME280;64752;48.870;9.082;2022-12-07T07:03:26;98176.69;;;1.46;87.25
76054;BME280;64752;48.870;9.082;2022-12-07T07:05:52;98184.47;;;1.68;86.90
76054;BME280;64752;48.870;9.082;2022-12-07T07:08:17;98185.31;;;1.78;88.11
76054;BME280;64752;48.870;9.082;2022-12-07T07:10:42;98179.41;;;1.88;86.74
76054;BME280;64752;48.870;9.082;2022-12-07T07:13:08;98178.56;;;2.01;85.69
76054;BME280;64752;48.870;9.082;2022-12-07T07:15:34;98181.97;;;2.03;83.54
76054;BME280;64752;48.870;9.082;2022-12-07T07:18:00;98188.81;;;2.01;84.39
76054;BME280;64752;48.870;9.082;2022-12-07T07:20:26;98192.25;;;2.16;87.44
76054;BME280;64752;48.870;9.082;2022-12-07T07:22:54;98197.34;;;2.19;83.20
76054;BME280;64752;48.870;9.082;2022-12-07T07:25:19;98193.94;;;2.18;82.53
76054;BME280;64752;48.870;9.082;2022-12-07T07:27:45;98191.41;;;2.15;82.68
76054;BME280;64752;48.870;9.082;2022-12-07T07:30:10;98188.84;;;2.24;81.40
76054;BME280;64752;48.870;9.082;2022-12-07T07:32:36;98186.28;;;2.27;82.20
76054;BME280;64752;48.870;9.082;2022-12-07T07:35:01;98194.81;;;2.34;82.36
76054;BME280;64752;48.870;9.082;2022-12-07T07:37:27;98193.97;;;2.23;82.22
76054;BME280;64752;48.870;9.082;2022-12-07T07:39:52;98190.56;;;2.28;82.20
76054;BME280;64752;48.870;9.082;2022-12-07T07:42:17;98205.88;;;2.24;82.62
76054;BME280;64752;48.870;9.082;2022-12-07T07:44:43;98188.84;;;2.27;83.21
76054;BME280;64752;48.870;9.082;2022-12-07T07:47:08;98203.34;;;2.35;82.91
76054;BME280;64752;48.870;9.082;2022-12-07T07:49:34;98209.31;;;2.29;83.67
76054;BME280;64752;48.870;9.082;2022-12-07T07:51:59;98211.00;;;2.24;83.79
76054;BME280;64752;48.870;9.082;2022-12-07T07:54:24;98213.56;;;2.21;85.06
76054;BME280;64752;48.870;9.082;2022-12-07T07:56:50;98210.13;;;2.19;85.00
76054;BME280;64752;48.870;9.082;2022-12-07T07:59:15;98217.84;;;2.36;85.50
76054;BME280;64752;48.870;9.082;2022-12-07T08:01:41;98212.72;;;2.48;83.80
76054;BME280;64752;48.870;9.082;2022-12-07T08:04:06;98211.88;;;2.37;84.43
76054;BME280;64752;48.870;9.082;2022-12-07T08:06:31;98216.97;;;2.44;83.94
76054;BME280;64752;48.870;9.082;2022-12-07T08:08:56;98202.50;;;2.60;86.17
76054;BME280;64752;48.870;9.082;2022-12-07T08:11:23;98211.03;;;2.51;84.14
76054;BME280;64752;48.870;9.082;2022-12-07T08:13:48;98211.88;;;2.75;85.94
76054;BME280;64752;48.870;9.082;2022-12-07T08:16:14;98215.28;;;2.80;82.69
76054;BME280;64752;48.870;9.082;2022-12-07T08:18:43;98220.44;;;2.85;83.22
76054;BME280;64752;48.870;9.082;2022-12-07T08:21:13;98213.56;;;3.05;81.60
76054;BME280;64752;48.870;9.082;2022-12-07T08:23:39;98216.13;;;3.04;80.80
76054;BME280;64752;48.870;9.082;2022-12-07T08:26:07;98220.38;;;3.11;80.92
76054;BME280;64752;48.870;9.082;2022-12-07T08:28:32;98212.69;;;3.19;79.33
76054;BME280;64752;48.870;9.082;2022-12-07T08:31:03;98218.66;;;3.25;78.14
76054;BME280;64752;48.870;9.082;2022-12-07T08:33:29;98218.59;;;3.39;78.11
76054;BME280;64752;48.870;9.082;2022-12-07T08:35:54;98223.69;;;3.52;77.77
76054;BME280;64752;48.870;9.082;2022-12-07T08:38:20;98227.06;;;3.64;75.96
76054;BME280;64752;48.870;9.082;2022-12-07T08:40:54;98221.91;;;3.77;76.51
76054;BME280;64752;48.870;9.082;2022-12-07T08:43:19;98227.81;;;3.86;75.64
76054;BME280;64752;48.870;9.082;2022-12-07T08:45:45;98222.69;;;3.88;76.03
76054;BME280;64752;48.870;9.082;2022-12-07T08:48:12;98224.38;;;3.88;74.50
76054;BME280;64752;48.870;9.082;2022-12-07T08:50:38;98217.53;;;3.94;76.09
76054;BME280;64752;48.870;9.082;2022-12-07T08:53:05;98226.84;;;4.08;74.94
76054;BME280;64752;48.870;9.082;2022-12-07T08:55:33;98218.25;;;4.15;75.02
76054;BME280;64752;48.870;9.082;2022-12-07T08:57:59;98218.31;;;4.07;73.28
76054;BME280;64752;48.870;9.082;2022-12-07T09:00:26;98222.44;;;4.31;73.66
76054;BME280;64752;48.870;9.082;2022-12-07T09:02:53;98223.13;;;4.53;73.08
76054;BME280;64752;48.870;9.082;2022-12-07T09:05:18;98215.44;;;4.53;71.72
76054;BME280;64752;48.870;9.082;2022-12-07T09:07:46;98215.38;;;4.61;72.83
76054;BME280;64752;48.870;9.082;2022-12-07T09:10:13;98219.59;;;4.68;71.85
76054;BME280;64752;48.870;9.082;2022-12-07T09:12:38;98214.53;;;4.59;72.43
76054;BME280;64752;48.870;9.082;2022-12-07T09:15:04;98214.53;;;4.57;74.03
76054;BME280;64752;48.870;9.082;2022-12-07T09:17:32;98213.63;;;4.69;73.65
76054;BME280;64752;48.870;9.082;2022-12-07T09:19:58;98215.22;;;4.81;72.55
76054;BME280;64752;48.870;9.082;2022-12-07T09:22:23;98210.81;;;4.94;73.02
76054;BME280;64752;48.870;9.082;2022-12-07T09:24:49;98214.28;;;4.91;72.67
76054;BME280;64752;48.870;9.082;2022-12-07T09:27:14;98221.31;;;4.68;73.20
76054;BME280;64752;48.870;9.082;2022-12-07T09:29:41;98214.47;;;4.67;73.73
76054;BME280;64752;48.870;9.082;2022-12-07T09:32:07;98219.34;;;4.96;72.29
76054;BME280;64752;48.870;9.082;2022-12-07T09:34:32;98214.13;;;5.07;72.41
76054;BME280;64752;48.870;9.082;2022-12-07T09:36:58;98216.66;;;5.13;73.63
76054;BME280;64752;48.870;9.082;2022-12-07T09:39:25;98215.94;;;4.97;73.10
76054;BME280;64752;48.870;9.082;2022-12-07T09:41:52;98214.53;;;5.52;72.50
76054;BME280;64752;48.870;9.082;2022-12-07T09:44:23;98218.00;;;5.46;71.88
76054;BME280;64752;48.870;9.082;2022-12-07T09:46:49;98212.56;;;5.71;70.54
76054;BME280;64752;48.870;9.082;2022-12-07T09:49:23;98214.16;;;5.83;71.41
76054;BME280;64752;48.870;9.082;2022-12-07T09:52:01;98221.78;;;5.90;70.51
76054;BME280;64752;48.870;9.082;2022-12-07T09:54:28;98214.16;;;5.81;71.26
76054;BME280;64752;48.870;9.082;2022-12-07T09:56:54;98210.31;;;5.43;75.65
76054;BME280;64752;48.870;9.082;2022-12-07T09:59:19;98200.22;;;5.28;73.38
76054;BME280;64752;48.870;9.082;2022-12-07T10:01:49;98211.81;;;4.77;75.85
76054;BME280;64752;48.870;9.082;2022-12-07T10:04:21;98205.59;;;5.03;74.39
76054;BME280;64752;48.870;9.082;2022-12-07T10:06:48;98198.13;;;4.80;75.12
76054;BME280;64752;48.870;9.082;2022-12-07T10:09:18;98191.88;;;5.04;75.34
76054;BME280;64752;48.870;9.082;2022-12-07T10:14:55;98189.41;;;4.96;76.13
76054;BME280;64752;48.870;9.082;2022-12-07T10:18:06;98183.53;;;4.82;77.38
76054;BME280;64752;48.870;9.082;2022-12-07T10:21:03;98178.97;;;5.10;76.91
76054;BME280;64752;48.870;9.082;2022-12-07T10:32:34;98180.69;;;5.11;77.99
76054;BME280;64752;48.870;9.082;2022-12-07T10:35:21;98182.44;;;5.06;78.50
76054;BME280;64752;48.870;9.082;2022-12-07T10:41:36;98173.34;;;5.53;76.96
76054;BME280;64752;48.870;9.082;2022-12-07T10:48:30;98171.19;;;5.86;76.14
76054;BME280;64752;48.870;9.082;2022-12-07T11:59:57;98109.63;;;5.75;76.12
76054;BME280;64752;48.870;9.082;2022-12-07T12:06:29;98104.16;;;5.35;76.89
76054;BME280;64752;48.870;9.082;2022-12-07T12:19:34;98102.44;;;5.34;76.11
76054;BME280;64752;48.870;9.082;2022-12-07T12:26:08;98100.78;;;5.31;77.54
76054;BME280;64752;48.870;9.082;2022-12-07T12:53:29;98093.94;;;5.27;80.78
76054;BME280;64752;48.870;9.082;2022-12-07T12:56:48;98086.19;;;5.30;77.74
76054;BME280;64752;48.870;9.082;2022-12-07T13:02:35;98075.09;;;5.28;78.47
76054;BME280;64752;48.870;9.082;2022-12-07T13:05:46;98077.09;;;5.05;79.85
76054;BME280;64752;48.870;9.082;2022-12-07T13:08:57;98071.53;;;4.66;80.03
76054;BME280;64752;48.870;9.082;2022-12-07T13:12:33;98066.16;;;4.87;79.39
76054;BME280;64752;48.870;9.082;2022-12-07T13:22:39;98058.16;;;5.10;79.11
76054;BME280;64752;48.870;9.082;2022-12-07T13:29:36;98053.25;;;4.92;79.02
76054;BME280;64752;48.870;9.082;2022-12-07T13:33:09;98050.34;;;5.19;78.49
76054;BME280;64752;48.870;9.082;2022-12-07T13:53:07;98038.13;;;5.37;77.50
76054;BME280;64752;48.870;9.082;2022-12-07T14:13:29;98048.50;;;4.56;79.78
76054;BME280;64752;48.870;9.082;2022-12-07T14:27:02;98045.88;;;4.59;79.92
76054;BME280;64752;48.870;9.082;2022-12-07T14:39:43;98035.63;;;4.59;80.17
76054;BME280;64752;48.870;9.082;2022-12-07T14:46:25;98033.28;;;4.39;81.06
76054;BME280;64752;48.870;9.082;2022-12-07T15:03:16;98057.63;;;3.92;83.78
76054;BME280;64752;48.870;9.082;2022-12-07T15:10:13;98060.22;;;3.88;84.94
76054;BME280;64752;48.870;9.082;2022-12-07T15:16:18;98058.72;;;3.60;85.34
76054;BME280;64752;48.870;9.082;2022-12-07T15:18:47;98060.47;;;3.54;85.37
76054;BME280;64752;48.870;9.082;2022-12-07T15:21:14;98058.69;;;3.63;85.58
76054;BME280;64752;48.870;9.082;2022-12-07T15:23:40;98057.97;;;3.46;85.59
76054;BME280;64752;48.870;9.082;2022-12-07T15:26:05;98055.41;;;3.46;85.06
76054;BME280;64752;48.870;9.082;2022-12-07T15:28:31;98060.53;;;3.40;85.06
76054;BME280;64752;48.870;9.082;2022-12-07T15:30:56;98057.19;;;3.32;85.32
76054;BME280;64752;48.870;9.082;2022-12-07T15:33:21;98053.78;;;3.23;86.05
76054;BME280;64752;48.870;9.082;2022-12-07T15:35:47;98055.53;;;3.15;86.26
76054;BME280;64752;48.870;9.082;2022-12-07T15:38:12;98053.00;;;3.11;86.84
76054;BME280;64752;48.870;9.082;2022-12-07T15:40:37;98052.19;;;3.05;86.04
76054;BME280;64752;48.870;9.082;2022-12-07T15:43:03;98050.47;;;3.03;86.41
76054;BME280;64752;48.870;9.082;2022-12-07T15:45:29;98050.47;;;3.03;86.47
76054;BME280;64752;48.870;9.082;2022-12-07T15:47:54;98048.78;;;2.99;86.58
76054;BME280;64752;48.870;9.082;2022-12-07T15:50:21;98034.25;;;2.98;86.44
76054;BME280;64752;48.870;9.082;2022-12-07T15:52:46;98040.28;;;2.91;86.68
76054;BME280;64752;48.870;9.082;2022-12-07T15:55:12;98036.84;;;2.88;86.68
76054;BME280;64752;48.870;9.082;2022-12-07T15:57:38;98042.84;;;2.91;86.96
76054;BME280;64752;48.870;9.082;2022-12-07T16:00:05;98032.63;;;2.87;86.19
76054;BME280;64752;48.870;9.082;2022-12-07T16:02:31;98030.91;;;2.93;85.77
76054;BME280;64752;48.870;9.082;2022-12-07T16:04:57;98032.66;;;2.80;85.81
76054;BME280;64752;48.870;9.082;2022-12-07T16:07:22;98021.56;;;2.78;85.57
76054;BME280;64752;48.870;9.082;2022-12-07T16:09:48;98025.88;;;2.65;86.28
76054;BME280;64752;48.870;9.082;2022-12-07T16:12:15;98020.75;;;2.59;86.66
76054;BME280;64752;48.870;9.082;2022-12-07T16:14:41;98029.28;;;2.64;86.23
76054;BME280;64752;48.870;9.082;2022-12-07T16:17:08;98024.16;;;2.62;86.57
76054;BME280;64752;48.870;9.082;2022-12-07T16:19:34;98027.56;;;2.64;86.57
76054;BME280;64752;48.870;9.082;2022-12-07T16:22:03;98031.78;;;2.79;86.16
76054;BME280;64752;48.870;9.082;2022-12-07T16:24:30;98034.38;;;2.78;86.55
76054;BME280;64752;48.870;9.082;2022-12-07T16:26:55;98020.69;;;2.77;85.74
76054;BME280;64752;48.870;9.082;2022-12-07T16:29:21;98018.16;;;2.71;85.22
76054;BME280;64752;48.870;9.082;2022-12-07T16:31:47;98021.56;;;2.78;85.95
76054;BME280;64752;48.870;9.082;2022-12-07T16:34:13;98018.16;;;2.66;85.32
76054;BME280;64752;48.870;9.082;2022-12-07T16:36:39;98020.78;;;2.56;87.05
76054;BME280;64752;48.870;9.082;2022-12-07T16:39:08;98007.16;;;2.49;86.27
76054;BME280;64752;48.870;9.082;2022-12-07T16:41:33;98006.31;;;2.44;86.87
76054;BME280;64752;48.870;9.082;2022-12-07T16:44:06;97999.47;;;2.46;87.15
76054;BME280;64752;48.870;9.082;2022-12-07T16:46:33;97994.34;;;2.50;86.78
76054;BME280;64752;48.870;9.082;2022-12-07T16:48:59;97991.75;;;2.55;88.39
76054;BME280;64752;48.870;9.082;2022-12-07T16:51:25;97985.78;;;2.56;87.67
76054;BME280;64752;48.870;9.082;2022-12-07T16:53:52;97983.19;;;2.61;87.04
76054;BME280;64752;48.870;9.082;2022-12-07T16:56:18;97972.97;;;2.67;87.36
76054;BME280;64752;48.870;9.082;2022-12-07T16:58:44;97977.25;;;2.63;86.49
76054;BME280;64752;48.870;9.082;2022-12-07T17:01:18;97971.28;;;2.63;86.66
76054;BME280;64752;48.870;9.082;2022-12-07T17:03:44;97975.53;;;2.65;86.65
76054;BME280;64752;48.870;9.082;2022-12-07T17:06:23;97976.41;;;2.61;87.02
76054;BME280;64752;48.870;9.082;2022-12-07T17:08:52;97978.97;;;2.63;87.30
76054;BME280;64752;48.870;9.082;2022-12-07T17:11:24;97976.38;;;2.66;87.87
76054;BME280;64752;48.870;9.082;2022-12-07T17:13:49;97968.69;;;2.67;86.91
76054;BME280;64752;48.870;9.082;2022-12-07T17:16:34;97973.81;;;2.67;86.75
76054;BME280;64752;48.870;9.082;2022-12-07T17:19:03;97975.50;;;2.72;86.82
76054;BME280;64752;48.870;9.082;2022-12-07T17:21:30;97977.22;;;2.66;86.76
76054;BME280;64752;48.870;9.082;2022-12-07T17:23:58;97972.97;;;2.68;87.24
76054;BME280;64752;48.870;9.082;2022-12-07T17:26:25;97978.88;;;2.78;86.96
76054;BME280;64752;48.870;9.082;2022-12-07T17:28:51;97972.03;;;2.76;86.95
76054;BME280;64752;48.870;9.082;2022-12-07T17:31:19;97973.72;;;2.83;86.16
76054;BME280;64752;48.870;9.082;2022-12-07T17:33:45;97972.94;;;2.73;86.49
76054;BME280;64752;48.870;9.082;2022-12-07T17:36:12;97971.19;;;2.75;86.65
76054;BME280;64752;48.870;9.082;2022-12-07T17:38:38;97966.13;;;2.67;87.15
76054;BME280;64752;48.870;9.082;2022-12-07T17:41:16;97970.38;;;2.75;86.59